sensor_id;sensor_type;location;lat;lon;timestamp;P1;durP1;ratioP1;P2;durP2;ratioP2
50689;SDS011;54375;48.298;11.238;2022-12-18T00:07:26;97.68;;;37.10;;
50689;SDS011;54375;48.298;11.238;2022-12-18T00:27:29;99.68;;;37.40;;
50689;SDS011;54375;48.298;11.238;2022-12-18T00:47:32;132.15;;;39.33;;
50689;SDS011;54375;48.298;11.238;2022-12-18T01:07:34;96.90;;;34.88;;
50689;SDS011;54375;48.298;11.238;2022-12-18T01:27:36;75.57;;;30.13;;
50689;SDS011;54375;48.298;11.238;2022-12-18T01:47:40;65.70;;;25.75;;
50689;SDS011;54375;48.298;11.238;2022-12-18T02:27:54;62.35;;;20.40;;
50689;SDS011;54375;48.298;11.238;2022-12-18T02:48:01;65.60;;;23.50;;
50689;SDS011;54375;48.298;11.238;2022-12-18T03:08:05;71.63;;;25.02;;
50689;SDS011;54375;48.298;11.238;2022-12-18T03:28:12;71.95;;;26.73;;
50689;SDS011;54375;48.298;11.238;2022-12-18T03:48:17;75.88;;;25.67;;
50689;SDS011;54375;48.298;11.238;2022-12-18T04:08:26;67.82;;;24.58;;
50689;SDS011;54375;48.298;11.238;2022-12-18T04:28:29;69.10;;;26.98;;
50689;SDS011;54375;48.298;11.238;2022-12-18T04:48:31;68.50;;;25.50;;
50689;SDS011;54375;48.298;11.238;2022-12-18T05:08:34;68.25;;;25.45;;
50689;SDS011;54375;48.298;11.238;2022-12-18T05:28:39;73.10;;;25.35;;
50689;SDS011;54375;48.298;11.238;2022-12-18T05:48:41;72.63;;;24.38;;
50689;SDS011;54375;48.298;11.238;2022-12-18T06:08:44;56.55;;;23.02;;
50689;SDS011;54375;48.298;11.238;2022-12-18T06:28:46;57.85;;;22.85;;
50689;SDS011;54375;48.298;11.238;2022-12-18T06:48:49;62.33;;;23.42;;
50689;SDS011;54375;48.298;11.238;2022-12-18T07:08:53;65.43;;;24.98;;
50689;SDS011;54375;48.298;11.238;2022-12-18T07:28:56;68.32;;;27.23;;
50689;SDS011;54375;48.298;11.238;2022-12-18T07:48:59;66.28;;;26.40;;
50689;SDS011;54375;48.298;11.238;2022-12-18T08:09:01;68.10;;;24.33;;
50689;SDS011;54375;48.298;11.238;2022-12-18T08:29:04;68.15;;;26.77;;
50689;SDS011;54375;48.298;11.238;2022-12-18T08:49:06;67.05;;;26.63;;
50689;SDS011;54375;48.298;11.238;2022-12-18T09:09:10;58.85;;;24.70;;
50689;SDS011;54375;48.298;11.238;2022-12-18T09:29:12;58.75;;;25.98;;
50689;SDS011;54375;48.298;11.238;2022-12-18T09:49:15;55.00;;;24.17;;
50689;SDS011;54375;48.298;11.238;2022-12-18T10:09:22;51.13;;;23.30;;
50689;SDS011;54375;48.298;11.238;2022-12-18T10:29:29;57.03;;;24.38;;
50689;SDS011;54375;48.298;11.238;2022-12-18T10:49:32;61.42;;;28.27;;
50689;SDS011;54375;48.298;11.238;2022-12-18T11:09:36;48.40;;;23.15;;
50689;SDS011;54375;48.298;11.238;2022-12-18T11:29:39;49.15;;;21.88;;
50689;SDS011;54375;48.298;11.238;2022-12-18T11:49:42;49.92;;;23.83;;
50689;SDS011;54375;48.298;11.238;2022-12-18T12:09:46;48.35;;;23.25;;
50689;SDS011;54375;48.298;11.238;2022-12-18T12:29:58;45.13;;;21.25;;
50689;SDS011;54375;48.298;11.238;2022-12-18T12:50:13;43.85;;;20.17;;
50689;SDS011;54375;48.298;11.238;2022-12-18T13:10:24;51.38;;;23.13;;
50689;SDS011;54375;48.298;11.238;2022-12-18T13:30:43;40.22;;;19.15;;
50689;SDS011;54375;48.298;11.238;2022-12-18T13:51:00;44.80;;;21.10;;
50689;SDS011;54375;48.298;11.238;2022-12-18T14:11:04;45.70;;;18.83;;
50689;SDS011;54375;48.298;11.238;2022-12-18T14:31:16;44.63;;;20.05;;
50689;SDS011;54375;48.298;11.238;2022-12-18T14:51:20;47.30;;;21.67;;
50689;SDS011;54375;48.298;11.238;2022-12-18T15:11:26;47.25;;;20.70;;
50689;SDS011;54375;48.298;11.238;2022-12-18T15:31:31;49.88;;;21.27;;
50689;SDS011;54375;48.298;11.238;2022-12-18T15:51:34;51.55;;;21.35;;
50689;SDS011;54375;48.298;11.238;2022-12-18T16:11:39;52.72;;;22.55;;
50689;SDS011;54375;48.298;11.238;2022-12-18T16:31:44;51.72;;;21.67;;
50689;SDS011;54375;48.298;11.238;2022-12-18T16:51:52;50.83;;;21.98;;
50689;SDS011;54375;48.298;11.238;2022-12-18T17:11:55;56.33;;;24.25;;
50689;SDS011;54375;48.298;11.238;2022-12-18T17:31:58;59.13;;;25.17;;
50689;SDS011;54375;48.298;11.238;2022-12-18T17:52:00;59.85;;;25.98;;
50689;SDS011;54375;48.298;11.238;2022-12-18T18:12:02;65.72;;;27.88;;
50689;SDS011;54375;48.298;11.238;2022-12-18T18:32:05;69.22;;;29.50;;
50689;SDS011;54375;48.298;11.238;2022-12-18T18:52:07;112.60;;;43.72;;
50689;SDS011;54375;48.298;11.238;2022-12-18T19:12:09;61.65;;;24.40;;
50689;SDS011;54375;48.298;11.238;2022-12-18T19:32:12;73.18;;;27.80;;
50689;SDS011;54375;48.298;11.238;2022-12-18T19:52:14;80.13;;;31.10;;
50689;SDS011;54375;48.298;11.238;2022-12-18T20:12:17;76.07;;;30.42;;
50689;SDS011;54375;48.298;11.238;2022-12-18T20:32:19;100.38;;;34.05;;
50689;SDS011;54375;48.298;11.238;2022-12-18T20:52:21;81.20;;;29.58;;
50689;SDS011;54375;48.298;11.238;2022-12-18T21:12:24;108.13;;;39.13;;
50689;SDS011;54375;48.298;11.238;2022-12-18T21:32:26;156.00;;;51.72;;
50689;SDS011;54375;48.298;11.238;2022-12-18T21:52:28;102.72;;;40.28;;
50689;SDS011;54375;48.298;11.238;2022-12-18T22:12:31;86.43;;;33.15;;
50689;SDS011;54375;48.298;11.238;2022-12-18T22:32:33;75.22;;;29.98;;
50689;SDS011;54375;48.298;11.238;2022-12-18T22:52:36;80.57;;;30.02;;
50689;SDS011;54375;48.298;11.238;2022-12-18T23:12:38;86.25;;;32.60;;
50689;SDS011;54375;48.298;11.238;2022-12-18T23:32:41;92.53;;;34.60;;
50689;SDS011;54375;48.298;11.238;2022-12-18T23:52:43;83.00;;;32.40;;
